createdAt,value
2023-05-21T00:00:11.599Z,18.06
2023-05-21T00:03:37.114Z,18.10
2023-05-21T00:06:39.820Z,18.29
2023-05-21T00:09:45.008Z,18.32
2023-05-21T00:12:47.516Z,18.33
2023-05-21T00:15:50.430Z,18.22
2023-05-21T00:18:54.628Z,17.98
2023-05-21T00:22:00.947Z,17.94
2023-05-21T00:25:04.004Z,18.06
2023-05-21T00:28:07.010Z,18.02
2023-05-21T00:31:10.869Z,17.78
2023-05-21T00:34:15.062Z,17.50
2023-05-21T00:37:17.552Z,17.47
2023-05-21T00:40:20.908Z,17.48
2023-05-21T00:43:26.967Z,17.51
2023-05-21T00:46:30.506Z,17.73
2023-05-21T00:49:33.232Z,17.99
2023-05-21T00:52:42.531Z,17.91
2023-05-21T00:55:45.982Z,17.92
2023-05-21T00:58:49.707Z,18.05
2023-05-21T01:01:57.987Z,18.18
2023-05-21T01:05:01.663Z,18.05
2023-05-21T01:08:04.979Z,18.05
2023-05-21T01:11:09.830Z,18.09
2023-05-21T01:14:13.823Z,17.98
2023-05-21T01:17:18.240Z,18.05
2023-05-21T01:20:23.760Z,18.19
2023-05-21T01:23:26.467Z,18.26
2023-05-21T01:26:28.871Z,18.35
2023-05-21T01:29:32.229Z,18.39
2023-05-21T01:33:00.909Z,18.52
2023-05-21T01:36:17.746Z,18.52
2023-05-21T01:39:34.262Z,18.56
2023-05-21T01:42:39.392Z,18.55
2023-05-21T01:45:44.265Z,17.65
2023-05-21T01:48:49.818Z,17.14
2023-05-21T01:51:52.549Z,17.64
2023-05-21T01:54:57.813Z,17.65
2023-05-21T01:58:02.328Z,17.54
2023-05-21T02:01:06.016Z,18.04
2023-05-21T02:04:08.660Z,17.02
2023-05-21T02:07:11.509Z,16.42
2023-05-21T02:10:14.121Z,16.11
2023-05-21T02:13:23.542Z,16.18
2023-05-21T02:16:28.417Z,16.28
2023-05-21T02:19:31.380Z,16.18
2023-05-21T02:22:34.071Z,15.91
2023-05-21T02:25:37.007Z,15.40
2023-05-21T02:28:40.682Z,15.23
2023-05-21T02:31:43.847Z,15.32
2023-05-21T02:34:47.620Z,15.02
2023-05-21T02:37:53.205Z,15.03
2023-05-21T02:40:56.389Z,15.20
2023-05-21T02:43:59.629Z,14.89
2023-05-21T02:47:02.793Z,15.03
2023-05-21T02:50:08.382Z,15.27
2023-05-21T02:53:17.998Z,15.39
2023-05-21T02:56:20.634Z,15.46
2023-05-21T02:59:22.940Z,15.49
2023-05-21T03:02:26.604Z,15.54
2023-05-21T03:05:30.338Z,15.74
2023-05-21T03:08:33.459Z,15.50
2023-05-21T03:11:35.974Z,15.06
2023-05-21T03:14:39.318Z,15.32
2023-05-21T03:17:42.683Z,15.68
2023-05-21T03:20:45.569Z,15.63
2023-05-21T03:23:49.027Z,15.58
2023-05-21T03:26:51.962Z,15.71
2023-05-21T03:29:56.172Z,16.08
2023-05-21T03:33:01.212Z,16.01
2023-05-21T03:36:04.101Z,16.47
2023-05-21T03:39:10.770Z,15.70
2023-05-21T03:42:14.762Z,15.43
2023-05-21T03:45:23.194Z,15.20
2023-05-21T03:48:44.436Z,15.44
2023-05-21T03:51:49.859Z,15.97
2023-05-21T03:54:54.504Z,16.59
2023-05-21T03:57:57.384Z,17.06
2023-05-21T04:01:02.090Z,17.27
2023-05-21T04:04:06.443Z,17.21
2023-05-21T04:07:14.729Z,16.26
2023-05-21T04:10:17.857Z,15.80
2023-05-21T04:13:20.269Z,15.58
2023-05-21T04:16:24.910Z,15.27
2023-05-21T04:19:28.699Z,15.09
2023-05-21T04:22:35.616Z,14.98
2023-05-21T04:25:39.178Z,14.89
2023-05-21T04:28:42.978Z,15.02
2023-05-21T04:31:46.137Z,14.92
2023-05-21T04:34:50.809Z,14.73
2023-05-21T04:37:55.308Z,14.75
2023-05-21T04:40:59.031Z,14.54
2023-05-21T04:44:02.604Z,14.67
2023-05-21T04:47:08.503Z,14.89
2023-05-21T04:50:12.092Z,14.88
2023-05-21T04:53:14.942Z,14.99
2023-05-21T04:56:20.579Z,14.72
2023-05-21T04:59:24.119Z,14.83
2023-05-21T05:02:29.225Z,14.75
2023-05-21T05:05:32.455Z,14.75
2023-05-21T05:08:38.086Z,14.67
2023-05-21T05:11:42.187Z,14.55
2023-05-21T05:14:46.307Z,14.58
2023-05-21T05:17:51.566Z,14.82
2023-05-21T05:20:54.126Z,14.83
2023-05-21T05:24:00.374Z,15.04
2023-05-21T05:27:05.385Z,15.61
2023-05-21T05:30:09.156Z,16.05
2023-05-21T05:33:12.256Z,15.85
2023-05-21T05:36:15.514Z,16.21
2023-05-21T05:39:17.935Z,16.14
2023-05-21T05:42:22.057Z,15.93
2023-05-21T05:45:25.537Z,15.81
2023-05-21T05:48:28.864Z,15.70
2023-05-21T05:51:33.238Z,15.93
2023-05-21T05:54:38.258Z,15.90
2023-05-21T05:57:40.569Z,16.32
2023-05-21T06:00:48.485Z,16.21
2023-05-21T06:03:51.615Z,16.63
2023-05-21T06:06:54.786Z,16.07
2023-05-21T06:09:57.061Z,16.49
2023-05-21T06:12:59.931Z,16.42
2023-05-21T06:16:02.638Z,16.94
2023-05-21T06:19:06.698Z,17.04
2023-05-21T06:22:09.281Z,16.90
2023-05-21T06:25:11.985Z,16.96
2023-05-21T06:28:14.846Z,16.97
2023-05-21T06:31:18.302Z,16.96
2023-05-21T06:34:21.381Z,17.13
2023-05-21T06:37:26.464Z,16.94
2023-05-21T06:40:29.808Z,17.02
2023-05-21T06:43:34.818Z,17.06
2023-05-21T06:47:12.526Z,17.13
2023-05-21T06:50:17.261Z,17.10
2023-05-21T06:53:19.772Z,16.99
2023-05-21T06:56:22.984Z,16.77
2023-05-21T06:59:29.072Z,16.66
2023-05-21T07:02:33.017Z,16.93
2023-05-21T07:05:37.305Z,16.73
2023-05-21T07:08:41.231Z,16.90
2023-05-21T07:11:44.750Z,17.13
2023-05-21T07:14:49.407Z,16.72
2023-05-21T07:17:51.950Z,17.02
2023-05-21T07:20:55.391Z,17.07
2023-05-21T07:24:00.153Z,16.86
2023-05-21T07:27:25.385Z,17.16
2023-05-21T07:30:30.358Z,16.92
2023-05-21T07:33:36.277Z,17.23
2023-05-21T07:36:38.799Z,17.21
2023-05-21T07:39:42.788Z,17.10
2023-05-21T07:42:47.092Z,16.89
2023-05-21T07:45:51.760Z,17.27
2023-05-21T07:48:54.467Z,17.02
2023-05-21T07:51:57.940Z,16.44
2023-05-21T07:55:02.214Z,16.83
2023-05-21T07:58:08.464Z,17.28
2023-05-21T08:01:14.952Z,17.10
2023-05-21T08:04:18.791Z,16.84
2023-05-21T08:07:23.114Z,16.94
2023-05-21T08:10:27.098Z,16.56
2023-05-21T08:13:30.298Z,16.65
2023-05-21T08:16:33.748Z,17.27
2023-05-21T08:19:36.220Z,16.58
2023-05-21T08:22:41.859Z,16.76
2023-05-21T08:25:44.895Z,16.69
2023-05-21T08:28:48.026Z,17.16
2023-05-21T08:31:50.807Z,17.26
2023-05-21T08:34:54.029Z,16.75
2023-05-21T08:38:20.237Z,17.21
2023-05-21T08:41:54.992Z,16.76
2023-05-21T08:45:00.758Z,17.06
2023-05-21T08:48:05.993Z,17.10
2023-05-21T08:51:10.274Z,16.63
2023-05-21T08:54:18.816Z,17.26
2023-05-21T08:57:24.272Z,17.41
2023-05-21T09:00:27.509Z,17.16
2023-05-21T09:03:32.194Z,17.33
2023-05-21T09:06:35.172Z,17.27
2023-05-21T09:09:47.116Z,17.70
2023-05-21T09:12:50.666Z,17.47
2023-05-21T09:15:53.220Z,17.68
2023-05-21T09:18:58.151Z,17.78
2023-05-21T09:22:08.410Z,17.68
2023-05-21T09:25:14.307Z,17.99
2023-05-21T09:28:20.356Z,17.96
2023-05-21T09:31:28.362Z,18.12
2023-05-21T09:34:31.126Z,18.09
2023-05-21T09:37:38.488Z,18.16
2023-05-21T09:40:45.647Z,18.40
2023-05-21T09:43:49.653Z,17.95
2023-05-21T09:46:57.965Z,18.18
2023-05-21T09:50:03.748Z,18.21
2023-05-21T09:53:14.191Z,18.33
2023-05-21T09:56:37.491Z,18.19
2023-05-21T09:59:40.619Z,18.29
2023-05-21T10:02:46.304Z,18.19
2023-05-21T10:05:52.785Z,18.43
2023-05-21T10:08:58.031Z,18.39
2023-05-21T10:12:00.373Z,18.32
2023-05-21T10:15:10.130Z,18.08
2023-05-21T10:18:13.873Z,18.01
2023-05-21T10:21:18.715Z,18.04
2023-05-21T10:24:21.536Z,18.24
2023-05-21T10:27:27.647Z,18.16
2023-05-21T10:30:32.700Z,18.76
2023-05-21T10:33:37.520Z,18.39
2023-05-21T10:36:41.999Z,18.22
2023-05-21T10:39:46.905Z,18.63
2023-05-21T10:43:37.310Z,18.67
2023-05-21T10:47:16.995Z,18.91
2023-05-21T10:50:40.649Z,18.35
2023-05-21T10:54:07.526Z,18.76
2023-05-21T10:57:46.554Z,19.11
2023-05-21T11:00:53.895Z,18.66
2023-05-21T11:03:57.789Z,18.36
2023-05-21T11:07:02.794Z,18.76
2023-05-21T11:10:39.519Z,18.73
2023-05-21T11:13:51.835Z,18.71
2023-05-21T11:16:58.260Z,18.43
2023-05-21T11:20:09.237Z,18.46
2023-05-21T11:23:13.427Z,18.47
2023-05-21T11:26:25.825Z,18.59
2023-05-21T11:29:42.276Z,19.04
2023-05-21T11:33:08.919Z,19.17
2023-05-21T11:36:14.939Z,18.61
2023-05-21T11:39:25.112Z,19.07
2023-05-21T11:42:31.687Z,19.22
2023-05-21T11:45:41.529Z,18.42
2023-05-21T11:48:49.607Z,18.53
2023-05-21T11:51:57.618Z,18.71
2023-05-21T11:55:06.846Z,18.89
2023-05-21T11:58:20.157Z,19.06
2023-05-21T12:01:25.252Z,19.15
2023-05-21T12:04:38.480Z,18.96
2023-05-21T12:07:45.586Z,18.61
2023-05-21T12:10:57.224Z,19.00
2023-05-21T12:14:03.626Z,18.52
2023-05-21T12:17:12.642Z,18.86
2023-05-21T12:20:19.058Z,18.79
2023-05-21T12:23:28.718Z,18.73
2023-05-21T12:26:34.348Z,19.00
2023-05-21T12:30:00.132Z,18.59
2023-05-21T12:33:06.953Z,18.42
2023-05-21T12:36:36.370Z,18.42
2023-05-21T12:39:44.982Z,18.43
2023-05-21T12:42:57.788Z,18.37
2023-05-21T12:46:05.686Z,18.43
2023-05-21T12:49:42.750Z,18.70
2023-05-21T12:52:50.116Z,18.42
2023-05-21T12:56:14.899Z,18.46
2023-05-21T12:59:22.622Z,18.61
2023-05-21T13:02:36.767Z,18.49
2023-05-21T13:05:44.962Z,18.69
2023-05-21T13:08:55.278Z,18.77
2023-05-21T13:12:02.862Z,18.74
2023-05-21T13:15:12.833Z,18.77
2023-05-21T13:18:18.944Z,18.73
2023-05-21T13:21:48.765Z,18.89
2023-05-21T13:24:54.488Z,19.31
2023-05-21T13:28:08.149Z,18.89
2023-05-21T13:31:16.305Z,18.52
2023-05-21T13:34:26.053Z,18.53
2023-05-21T13:37:33.465Z,18.61
2023-05-21T13:40:41.622Z,18.40
2023-05-21T13:43:50.338Z,18.80
2023-05-21T13:46:59.682Z,18.97
2023-05-21T13:50:10.737Z,19.12
2023-05-21T13:57:21.097Z,18.69
2023-05-21T14:00:28.490Z,19.08
2023-05-21T14:03:41.417Z,18.83
2023-05-21T14:14:37.036Z,19.10
2023-05-21T14:17:46.251Z,18.93
2023-05-21T14:20:58.858Z,18.94
2023-05-21T14:24:12.698Z,18.80
2023-05-21T14:27:23.804Z,19.25
2023-05-21T14:30:30.197Z,19.45
2023-05-21T14:33:41.887Z,18.91
2023-05-21T14:36:48.743Z,19.03
2023-05-21T14:39:58.294Z,19.18
2023-05-21T14:43:04.950Z,19.07
2023-05-21T14:46:12.180Z,18.81
2023-05-21T14:49:18.528Z,18.90
2023-05-21T14:52:26.488Z,19.32
2023-05-21T14:55:34.124Z,19.71
2023-05-21T14:58:46.370Z,19.90
2023-05-21T15:01:55.928Z,19.01
2023-05-21T15:05:04.919Z,19.79
2023-05-21T15:08:12.570Z,19.76
2023-05-21T15:11:21.995Z,19.69
2023-05-21T15:14:29.012Z,19.28
2023-05-21T15:17:38.672Z,19.47
2023-05-21T15:20:45.828Z,19.78
2023-05-21T15:24:07.324Z,19.61
2023-05-21T15:27:15.978Z,19.66
2023-05-21T15:30:24.135Z,19.01
2023-05-21T15:33:34.629Z,18.96
2023-05-21T15:36:41.499Z,19.03
2023-05-21T15:39:50.966Z,19.51
2023-05-21T15:42:56.741Z,19.48
2023-05-21T15:46:07.524Z,19.31
2023-05-21T15:49:13.463Z,18.87
2023-05-21T15:52:22.094Z,19.10
2023-05-21T15:55:28.354Z,19.61
2023-05-21T15:58:39.887Z,19.31
2023-05-21T16:01:46.278Z,19.51
2023-05-21T16:04:53.289Z,18.94
2023-05-21T16:07:58.940Z,19.15
2023-05-21T16:11:05.885Z,19.14
2023-05-21T16:14:11.547Z,18.99
2023-05-21T16:17:19.203Z,19.04
2023-05-21T16:20:25.067Z,18.93
2023-05-21T16:23:29.934Z,19.03
2023-05-21T16:26:34.797Z,18.74
2023-05-21T16:29:41.023Z,18.52
2023-05-21T16:32:45.630Z,18.60
2023-05-21T16:35:51.598Z,18.61
2023-05-21T16:38:57.286Z,18.64
2023-05-21T16:42:03.138Z,18.73
2023-05-21T16:45:09.314Z,18.81
2023-05-21T16:48:15.016Z,18.71
2023-05-21T16:51:20.407Z,18.87
2023-05-21T16:54:26.870Z,18.76
2023-05-21T16:57:32.706Z,18.64
2023-05-21T17:00:39.343Z,18.69
2023-05-21T17:03:46.752Z,18.50
2023-05-21T17:06:54.214Z,18.74
2023-05-21T17:10:01.814Z,18.87
2023-05-21T17:13:20.903Z,18.86
2023-05-21T17:16:28.153Z,18.55
2023-05-21T17:19:36.538Z,18.73
2023-05-21T17:22:46.968Z,18.52
2023-05-21T17:25:55.044Z,18.76
2023-05-21T17:29:01.691Z,18.77
2023-05-21T17:32:09.193Z,19.00
2023-05-21T17:35:14.798Z,18.87
2023-05-21T17:38:23.035Z,18.91
2023-05-21T17:41:29.525Z,18.93
2023-05-21T17:44:36.928Z,18.94
2023-05-21T17:47:48.588Z,18.70
2023-05-21T17:50:56.417Z,18.77
2023-05-21T17:54:02.216Z,18.57
2023-05-21T17:57:09.580Z,18.73
2023-05-21T18:00:18.525Z,18.67
2023-05-21T18:03:25.568Z,18.64
2023-05-21T18:06:32.662Z,18.67
2023-05-21T18:10:31.186Z,18.67
2023-05-21T18:13:39.710Z,18.49
2023-05-21T18:17:14.759Z,18.53
2023-05-21T18:25:13.488Z,18.29
2023-05-21T18:28:48.640Z,18.16
2023-05-21T18:32:20.041Z,18.15
2023-05-21T18:35:51.193Z,17.88
2023-05-21T18:38:57.960Z,17.96
2023-05-21T18:42:12.825Z,17.96
2023-05-21T18:45:23.700Z,17.86
2023-05-21T18:48:35.645Z,17.92
2023-05-21T18:51:42.090Z,17.92
2023-05-21T18:54:52.543Z,18.06
2023-05-21T18:58:02.081Z,17.77
2023-05-21T19:01:17.391Z,17.63
2023-05-21T19:04:23.889Z,17.77
2023-05-21T19:07:31.166Z,17.54
2023-05-21T19:10:37.940Z,17.33
2023-05-21T19:13:45.794Z,17.16
2023-05-21T19:16:55.012Z,17.06
2023-05-21T19:20:04.136Z,16.93
2023-05-21T19:23:11.339Z,16.86
2023-05-21T19:26:18.601Z,16.70
2023-05-21T19:29:27.194Z,16.53
2023-05-21T19:32:39.782Z,16.41
2023-05-21T19:35:48.877Z,16.29
2023-05-21T19:38:56.348Z,16.18
2023-05-21T19:42:03.523Z,16.09
2023-05-21T19:45:14.692Z,16.09
2023-05-21T19:48:21.402Z,15.97
2023-05-21T19:51:30.383Z,16.02
2023-05-21T19:54:36.658Z,15.95
2023-05-21T19:57:44.058Z,16.00
2023-05-21T20:00:51.551Z,15.84
2023-05-21T20:03:58.607Z,15.87
2023-05-21T20:07:05.097Z,15.78
2023-05-21T20:10:17.531Z,15.78
2023-05-21T20:13:26.412Z,15.78
2023-05-21T20:17:04.573Z,15.74
2023-05-21T20:20:40.028Z,15.60
2023-05-21T20:23:48.245Z,15.51
2023-05-21T20:26:57.507Z,15.51
2023-05-21T20:30:03.918Z,15.46
2023-05-21T20:33:10.798Z,15.29
2023-05-21T20:36:17.783Z,15.09
2023-05-21T20:39:25.049Z,15.02
2023-05-21T20:42:35.938Z,14.98
2023-05-21T20:45:41.165Z,15.02
2023-05-21T20:48:48.170Z,15.02
2023-05-21T20:51:53.470Z,14.92
2023-05-21T20:55:01.110Z,14.93
2023-05-21T20:58:07.432Z,14.83
2023-05-21T21:01:12.650Z,14.96
2023-05-21T21:04:17.420Z,15.03
2023-05-21T21:07:23.366Z,15.00
2023-05-21T21:10:26.898Z,15.12
2023-05-21T21:13:31.437Z,15.23
2023-05-21T21:16:34.394Z,15.39
2023-05-21T21:19:37.460Z,15.23
2023-05-21T21:22:41.554Z,15.18
2023-05-21T21:25:44.344Z,15.12
2023-05-21T21:28:47.116Z,15.13
2023-05-21T21:31:51.555Z,15.18
2023-05-21T21:34:54.665Z,15.00
2023-05-21T21:37:57.698Z,14.96
2023-05-21T21:41:00.835Z,14.72
2023-05-21T21:44:03.681Z,14.89
2023-05-21T21:47:06.177Z,14.92
2023-05-21T21:50:09.473Z,14.64
2023-05-21T21:53:14.184Z,14.41
2023-05-21T21:56:17.201Z,14.32
2023-05-21T21:59:20.933Z,14.37
2023-05-21T22:02:23.640Z,14.31
2023-05-21T22:05:26.126Z,14.31
2023-05-21T22:08:28.994Z,14.25
2023-05-21T22:11:31.207Z,14.24
2023-05-21T22:14:34.918Z,14.27
2023-05-21T22:17:37.366Z,14.22
2023-05-21T22:20:40.657Z,14.30
2023-05-21T22:23:44.392Z,14.34
2023-05-21T22:26:47.762Z,14.27
2023-05-21T22:29:50.527Z,14.24
2023-05-21T22:32:53.115Z,14.51
2023-05-21T22:35:56.432Z,14.73
2023-05-21T22:38:59.009Z,14.42
2023-05-21T22:42:01.227Z,14.32
2023-05-21T22:45:04.580Z,14.16
2023-05-21T22:48:07.578Z,14.06
2023-05-21T22:51:11.603Z,14.10
2023-05-21T22:54:14.206Z,14.18
2023-05-21T22:57:17.096Z,14.11
2023-05-21T23:00:20.160Z,13.93
2023-05-21T23:03:22.634Z,14.04
2023-05-21T23:06:25.708Z,14.16
2023-05-21T23:09:28.278Z,14.13
2023-05-21T23:12:30.783Z,14.21
2023-05-21T23:15:33.949Z,14.16
2023-05-21T23:18:36.223Z,14.00
2023-05-21T23:21:39.846Z,14.10
2023-05-21T23:24:42.052Z,14.01
2023-05-21T23:27:45.402Z,13.86
2023-05-21T23:30:48.607Z,13.87
2023-05-21T23:33:52.100Z,13.81
2023-05-21T23:36:54.375Z,13.74
2023-05-21T23:39:56.908Z,13.81
2023-05-21T23:42:59.154Z,13.73
2023-05-21T23:46:01.840Z,13.83
2023-05-21T23:49:04.377Z,13.70
2023-05-21T23:52:07.832Z,13.78
2023-05-21T23:55:13.187Z,13.83
2023-05-21T23:58:16.299Z,13.86
